createdAt,value
2018-04-09T20:35:58.161Z,13.53
2018-04-09T20:38:32.877Z,14.97
2018-04-09T20:41:09.113Z,15.20
2018-04-09T20:43:47.537Z,17.50
2018-04-09T20:46:19.222Z,18.87
2018-04-09T20:48:49.303Z,17.73
2018-04-09T20:51:19.534Z,18.73
2018-04-09T20:53:49.798Z,19.27
2018-04-09T20:56:20.619Z,21.07
2018-04-09T20:58:50.594Z,19.77
2018-04-09T21:01:20.906Z,19.47
2018-04-09T21:03:50.872Z,20.50
2018-04-09T21:06:20.894Z,20.07
2018-04-09T21:08:51.902Z,19.70
2018-04-09T21:11:21.811Z,19.73
2018-04-09T21:13:52.562Z,20.93
2018-04-09T21:16:22.962Z,22.23
2018-04-09T21:18:53.006Z,21.27
2018-04-09T21:21:23.982Z,23.30
2018-04-09T21:23:55.002Z,23.50
2018-04-09T21:26:24.990Z,24.83
2018-04-09T21:28:55.446Z,25.80
2018-04-09T21:31:25.620Z,27.30
2018-04-09T21:33:56.050Z,24.33
2018-04-09T21:36:26.411Z,24.10
2018-04-09T21:38:56.790Z,25.17
2018-04-09T21:41:27.766Z,24.90
2018-04-09T21:43:58.253Z,25.47
2018-04-09T21:46:28.204Z,24.33
2018-04-09T21:48:59.930Z,25.23
2018-04-09T21:51:30.998Z,25.50
2018-04-09T21:54:00.919Z,24.17
2018-04-09T21:56:30.898Z,25.87
2018-04-09T21:59:01.305Z,25.53
2018-04-09T22:01:33.086Z,25.00
2018-04-09T22:04:03.003Z,25.57
2018-04-09T22:06:33.371Z,24.87
2018-04-09T22:09:03.504Z,25.77
2018-04-09T22:11:33.972Z,24.97
2018-04-09T22:14:04.294Z,26.13
2018-04-09T22:16:34.402Z,24.33
2018-04-09T22:19:05.043Z,25.43
2018-04-09T22:21:35.338Z,25.27
2018-04-09T22:24:05.299Z,26.30
2018-04-09T22:26:37.034Z,24.50
2018-04-09T22:29:09.522Z,24.67
2018-04-09T22:31:41.283Z,23.87
2018-04-09T22:34:11.294Z,24.07
2018-04-09T22:36:42.009Z,23.67
2018-04-09T22:39:12.891Z,24.70
2018-04-09T22:41:43.179Z,24.77
2018-04-09T22:44:13.788Z,24.30
2018-04-09T22:46:43.763Z,24.40
2018-04-09T22:49:17.394Z,25.13
2018-04-09T22:51:47.287Z,23.57
2018-04-09T22:54:18.053Z,24.03
2018-04-09T22:56:48.229Z,23.60
2018-04-09T22:59:18.242Z,22.60
2018-04-09T23:01:48.418Z,23.40
2018-04-09T23:04:18.823Z,24.33
2018-04-09T23:06:48.982Z,25.00
2018-04-09T23:09:20.125Z,22.97
2018-04-09T23:11:50.057Z,24.20
2018-04-09T23:14:20.114Z,23.70
2018-04-09T23:16:50.656Z,24.50
2018-04-09T23:19:20.643Z,23.63
2018-04-09T23:21:50.491Z,24.33
2018-04-09T23:24:20.832Z,24.53
2018-04-09T23:26:51.489Z,23.30
2018-04-09T23:29:21.484Z,23.37
2018-04-09T23:31:52.624Z,24.60
2018-04-09T23:34:23.665Z,24.60
2018-04-09T23:36:54.273Z,22.73
2018-04-09T23:39:24.417Z,24.27
2018-04-09T23:41:55.067Z,24.93
2018-04-09T23:44:24.882Z,23.43
2018-04-09T23:46:55.130Z,24.47
2018-04-09T23:49:25.015Z,23.50
2018-04-09T23:51:54.810Z,23.33
2018-04-09T23:54:25.007Z,22.60
2018-04-09T23:56:54.913Z,23.63
2018-04-09T23:59:25.609Z,22.17
